sensor_id;sensor_type;location;lat;lon;timestamp;temperature;humidity
30851;DHT22;17567;48.382;9.102;2022-07-23T00:09:33;20.70;99.90
30851;DHT22;17567;48.382;9.102;2022-07-23T00:14:34;20.60;99.90
30851;DHT22;17567;48.382;9.102;2022-07-23T00:19:35;20.30;99.90
30851;DHT22;17567;48.382;9.102;2022-07-23T00:24:36;20.10;99.90
30851;DHT22;17567;48.382;9.102;2022-07-23T00:29:36;20.10;99.90
30851;DHT22;17567;48.382;9.102;2022-07-23T00:34:37;20.00;99.90
30851;DHT22;17567;48.382;9.102;2022-07-23T00:39:38;19.80;99.90
30851;DHT22;17567;48.382;9.102;2022-07-23T00:44:39;19.80;99.90
30851;DHT22;17567;48.382;9.102;2022-07-23T00:49:40;19.80;99.90
30851;DHT22;17567;48.382;9.102;2022-07-23T00:54:41;19.80;99.90
30851;DHT22;17567;48.382;9.102;2022-07-23T00:59:41;19.70;99.90
30851;DHT22;17567;48.382;9.102;2022-07-23T01:04:42;19.70;99.90
30851;DHT22;17567;48.382;9.102;2022-07-23T01:14:57;19.60;99.90
30851;DHT22;17567;48.382;9.102;2022-07-23T01:19:58;19.70;99.90
30851;DHT22;17567;48.382;9.102;2022-07-23T01:24:59;19.50;99.90
30851;DHT22;17567;48.382;9.102;2022-07-23T01:30:00;19.40;99.90
30851;DHT22;17567;48.382;9.102;2022-07-23T01:35:01;19.40;99.90
30851;DHT22;17567;48.382;9.102;2022-07-23T01:40:03;19.10;99.90
30851;DHT22;17567;48.382;9.102;2022-07-23T01:45:05;19.30;99.90
30851;DHT22;17567;48.382;9.102;2022-07-23T01:50:06;19.40;99.90
30851;DHT22;17567;48.382;9.102;2022-07-23T01:55:08;19.30;99.90
30851;DHT22;17567;48.382;9.102;2022-07-23T02:00:09;19.30;99.90
30851;DHT22;17567;48.382;9.102;2022-07-23T02:05:10;19.30;99.90
30851;DHT22;17567;48.382;9.102;2022-07-23T02:10:11;19.30;99.90
30851;DHT22;17567;48.382;9.102;2022-07-23T02:15:12;19.20;99.90
30851;DHT22;17567;48.382;9.102;2022-07-23T02:20:13;19.20;99.90
30851;DHT22;17567;48.382;9.102;2022-07-23T02:25:14;19.10;99.90
30851;DHT22;17567;48.382;9.102;2022-07-23T02:30:15;19.10;99.90
30851;DHT22;17567;48.382;9.102;2022-07-23T02:35:16;19.10;99.90
30851;DHT22;17567;48.382;9.102;2022-07-23T02:40:18;19.10;99.90
30851;DHT22;17567;48.382;9.102;2022-07-23T02:45:19;19.10;99.90
30851;DHT22;17567;48.382;9.102;2022-07-23T02:50:20;19.30;99.90
30851;DHT22;17567;48.382;9.102;2022-07-23T02:55:21;19.30;99.90
30851;DHT22;17567;48.382;9.102;2022-07-23T03:00:21;19.30;99.90
30851;DHT22;17567;48.382;9.102;2022-07-23T03:05:22;19.30;99.90
30851;DHT22;17567;48.382;9.102;2022-07-23T03:10:23;19.40;99.90
30851;DHT22;17567;48.382;9.102;2022-07-23T03:15:24;19.40;99.90
30851;DHT22;17567;48.382;9.102;2022-07-23T03:20:24;19.30;99.90
30851;DHT22;17567;48.382;9.102;2022-07-23T03:25:25;19.30;99.90
30851;DHT22;17567;48.382;9.102;2022-07-23T03:30:25;19.40;99.90
30851;DHT22;17567;48.382;9.102;2022-07-23T03:35:26;19.30;99.90
30851;DHT22;17567;48.382;9.102;2022-07-23T03:40:27;19.30;99.90
30851;DHT22;17567;48.382;9.102;2022-07-23T03:45:28;19.30;99.90
30851;DHT22;17567;48.382;9.102;2022-07-23T03:50:29;19.30;99.90
30851;DHT22;17567;48.382;9.102;2022-07-23T03:55:29;19.20;99.90
30851;DHT22;17567;48.382;9.102;2022-07-23T04:00:30;19.20;99.90
30851;DHT22;17567;48.382;9.102;2022-07-23T05:55:56;19.10;99.90
30851;DHT22;17567;48.382;9.102;2022-07-23T06:00:57;19.10;99.90
30851;DHT22;17567;48.382;9.102;2022-07-23T06:05:57;19.20;99.90
30851;DHT22;17567;48.382;9.102;2022-07-23T06:10:58;19.30;99.90
30851;DHT22;17567;48.382;9.102;2022-07-23T06:15:59;19.40;99.90
30851;DHT22;17567;48.382;9.102;2022-07-23T06:21:00;19.50;99.90
30851;DHT22;17567;48.382;9.102;2022-07-23T06:26:00;19.70;99.90
30851;DHT22;17567;48.382;9.102;2022-07-23T06:31:01;19.90;99.90
30851;DHT22;17567;48.382;9.102;2022-07-23T06:36:02;20.10;99.90
30851;DHT22;17567;48.382;9.102;2022-07-23T06:41:03;20.40;99.90
30851;DHT22;17567;48.382;9.102;2022-07-23T06:46:07;20.50;99.90
30851;DHT22;17567;48.382;9.102;2022-07-23T06:51:09;20.60;99.90
30851;DHT22;17567;48.382;9.102;2022-07-23T06:56:10;20.90;99.90
30851;DHT22;17567;48.382;9.102;2022-07-23T07:01:10;21.30;99.90
30851;DHT22;17567;48.382;9.102;2022-07-23T07:06:11;21.40;99.90
30851;DHT22;17567;48.382;9.102;2022-07-23T07:11:12;21.60;99.90
30851;DHT22;17567;48.382;9.102;2022-07-23T07:16:13;21.70;99.90
30851;DHT22;17567;48.382;9.102;2022-07-23T07:21:14;21.90;99.90
30851;DHT22;17567;48.382;9.102;2022-07-23T07:26:15;22.10;99.90
30851;DHT22;17567;48.382;9.102;2022-07-23T07:31:15;22.30;99.90
30851;DHT22;17567;48.382;9.102;2022-07-23T07:36:17;22.50;99.90
30851;DHT22;17567;48.382;9.102;2022-07-23T07:46:24;20.40;99.90
30851;DHT22;17567;48.382;9.102;2022-07-23T07:51:27;23.10;99.90
30851;DHT22;17567;48.382;9.102;2022-07-23T07:56:29;23.20;99.90
30851;DHT22;17567;48.382;9.102;2022-07-23T08:01:30;23.30;99.90
30851;DHT22;17567;48.382;9.102;2022-07-23T08:06:30;23.30;99.90
30851;DHT22;17567;48.382;9.102;2022-07-23T08:11:31;23.40;99.90
30851;DHT22;17567;48.382;9.102;2022-07-23T08:16:31;23.60;99.90
30851;DHT22;17567;48.382;9.102;2022-07-23T08:21:32;23.70;99.90
30851;DHT22;17567;48.382;9.102;2022-07-23T08:31:35;24.00;99.90
30851;DHT22;17567;48.382;9.102;2022-07-23T08:36:35;24.30;99.90
30851;DHT22;17567;48.382;9.102;2022-07-23T08:41:39;24.30;99.90
30851;DHT22;17567;48.382;9.102;2022-07-23T08:46:41;24.50;99.90
30851;DHT22;17567;48.382;9.102;2022-07-23T08:51:42;24.60;99.90
30851;DHT22;17567;48.382;9.102;2022-07-23T08:56:42;24.70;99.90
30851;DHT22;17567;48.382;9.102;2022-07-23T09:01:43;24.90;99.90
30851;DHT22;17567;48.382;9.102;2022-07-23T09:06:45;25.30;99.90
30851;DHT22;17567;48.382;9.102;2022-07-23T09:11:46;25.30;99.90
30851;DHT22;17567;48.382;9.102;2022-07-23T09:16:47;25.60;99.90
30851;DHT22;17567;48.382;9.102;2022-07-23T09:21:48;25.60;99.90
30851;DHT22;17567;48.382;9.102;2022-07-23T09:26:49;25.60;99.90
30851;DHT22;17567;48.382;9.102;2022-07-23T09:32:02;25.70;99.90
30851;DHT22;17567;48.382;9.102;2022-07-23T09:37:10;25.50;99.90
30851;DHT22;17567;48.382;9.102;2022-07-23T09:42:19;25.50;99.90
30851;DHT22;17567;48.382;9.102;2022-07-23T09:47:23;25.50;99.90
30851;DHT22;17567;48.382;9.102;2022-07-23T09:52:29;25.40;99.90
30851;DHT22;17567;48.382;9.102;2022-07-23T09:57:31;25.60;99.90
30851;DHT22;17567;48.382;9.102;2022-07-23T10:02:33;25.70;99.90
30851;DHT22;17567;48.382;9.102;2022-07-23T10:38:52;26.80;99.90
30851;DHT22;17567;48.382;9.102;2022-07-23T10:54:23;27.30;99.90
30851;DHT22;17567;48.382;9.102;2022-07-23T10:59:24;27.50;99.90
30851;DHT22;17567;48.382;9.102;2022-07-23T11:04:48;27.80;99.90
30851;DHT22;17567;48.382;9.102;2022-07-23T11:09:49;28.10;99.90
30851;DHT22;17567;48.382;9.102;2022-07-23T11:31:56;27.00;99.90
30851;DHT22;17567;48.382;9.102;2022-07-23T11:37:02;27.30;99.90
30851;DHT22;17567;48.382;9.102;2022-07-23T11:42:05;27.30;99.90
30851;DHT22;17567;48.382;9.102;2022-07-23T11:47:11;27.80;99.90
30851;DHT22;17567;48.382;9.102;2022-07-23T11:52:16;28.40;99.90
30851;DHT22;17567;48.382;9.102;2022-07-23T11:57:19;28.30;99.90
30851;DHT22;17567;48.382;9.102;2022-07-23T12:02:22;28.30;99.90
30851;DHT22;17567;48.382;9.102;2022-07-23T12:07:37;28.30;99.90
30851;DHT22;17567;48.382;9.102;2022-07-23T12:12:50;28.10;99.90
30851;DHT22;17567;48.382;9.102;2022-07-23T12:17:52;28.30;99.90
30851;DHT22;17567;48.382;9.102;2022-07-23T12:22:59;28.20;99.90
30851;DHT22;17567;48.382;9.102;2022-07-23T12:28:07;28.00;99.90
30851;DHT22;17567;48.382;9.102;2022-07-23T12:33:11;27.90;99.90
30851;DHT22;17567;48.382;9.102;2022-07-23T12:38:17;27.60;99.90
30851;DHT22;17567;48.382;9.102;2022-07-23T12:43:24;27.60;99.90
30851;DHT22;17567;48.382;9.102;2022-07-23T12:53:44;28.10;99.90
30851;DHT22;17567;48.382;9.102;2022-07-23T13:03:56;28.00;99.90
30851;DHT22;17567;48.382;9.102;2022-07-23T13:08:58;28.10;99.90
30851;DHT22;17567;48.382;9.102;2022-07-23T13:14:00;28.40;99.90
30851;DHT22;17567;48.382;9.102;2022-07-23T13:19:01;28.40;99.90
30851;DHT22;17567;48.382;9.102;2022-07-23T13:24:02;28.30;99.90
30851;DHT22;17567;48.382;9.102;2022-07-23T17:55:26;28.70;99.90
30851;DHT22;17567;48.382;9.102;2022-07-23T18:00:32;28.80;95.90
30851;DHT22;17567;48.382;9.102;2022-07-23T18:05:33;28.50;97.30
30851;DHT22;17567;48.382;9.102;2022-07-23T18:10:35;28.30;96.70
30851;DHT22;17567;48.382;9.102;2022-07-23T18:15:37;28.10;96.40
30851;DHT22;17567;48.382;9.102;2022-07-23T18:20:38;27.90;97.00
30851;DHT22;17567;48.382;9.102;2022-07-23T18:25:39;27.70;96.90
30851;DHT22;17567;48.382;9.102;2022-07-23T18:30:40;27.20;99.90
30851;DHT22;17567;48.382;9.102;2022-07-23T18:50:50;26.20;99.60
30851;DHT22;17567;48.382;9.102;2022-07-23T19:00:54;26.10;99.90
30851;DHT22;17567;48.382;9.102;2022-07-23T19:05:55;25.90;99.90
30851;DHT22;17567;48.382;9.102;2022-07-23T19:10:56;25.80;99.90
30851;DHT22;17567;48.382;9.102;2022-07-23T19:15:57;25.50;99.90
30851;DHT22;17567;48.382;9.102;2022-07-23T19:21:01;25.40;99.90
30851;DHT22;17567;48.382;9.102;2022-07-23T19:26:03;25.20;99.90
30851;DHT22;17567;48.382;9.102;2022-07-23T19:31:04;25.00;99.90
30851;DHT22;17567;48.382;9.102;2022-07-23T19:36:12;24.80;99.90
30851;DHT22;17567;48.382;9.102;2022-07-23T19:41:13;24.60;99.90
30851;DHT22;17567;48.382;9.102;2022-07-23T19:46:14;24.00;99.90
30851;DHT22;17567;48.382;9.102;2022-07-23T19:51:15;23.90;99.90
30851;DHT22;17567;48.382;9.102;2022-07-23T19:56:16;24.00;99.90
30851;DHT22;17567;48.382;9.102;2022-07-23T20:01:21;23.70;99.90
30851;DHT22;17567;48.382;9.102;2022-07-23T20:06:22;23.50;99.90
30851;DHT22;17567;48.382;9.102;2022-07-23T20:11:23;23.40;99.90
30851;DHT22;17567;48.382;9.102;2022-07-23T20:16:24;22.90;99.90
30851;DHT22;17567;48.382;9.102;2022-07-23T20:21:27;22.70;99.90
30851;DHT22;17567;48.382;9.102;2022-07-23T20:26:50;22.60;99.90
30851;DHT22;17567;48.382;9.102;2022-07-23T20:31:52;22.40;99.90
30851;DHT22;17567;48.382;9.102;2022-07-23T20:36:54;22.30;99.90
30851;DHT22;17567;48.382;9.102;2022-07-23T20:41:55;22.20;99.90
30851;DHT22;17567;48.382;9.102;2022-07-23T20:46:56;22.00;99.90
30851;DHT22;17567;48.382;9.102;2022-07-23T20:51:56;22.00;99.90
30851;DHT22;17567;48.382;9.102;2022-07-23T20:56:58;21.90;99.90
30851;DHT22;17567;48.382;9.102;2022-07-23T21:01:59;21.80;99.90
30851;DHT22;17567;48.382;9.102;2022-07-23T21:06:59;21.70;99.90
30851;DHT22;17567;48.382;9.102;2022-07-23T21:12:00;21.60;99.90
30851;DHT22;17567;48.382;9.102;2022-07-23T21:17:01;21.80;99.90
30851;DHT22;17567;48.382;9.102;2022-07-23T21:22:01;21.80;99.90
30851;DHT22;17567;48.382;9.102;2022-07-23T21:27:05;21.50;99.90
30851;DHT22;17567;48.382;9.102;2022-07-23T21:42:14;21.10;99.90
30851;DHT22;17567;48.382;9.102;2022-07-23T21:47:15;20.90;99.90
